Time;durP1;ratioP1;P1;durP2;ratioP2;P2;SDS_P1;SDS_P2;PMS_P1;PMS_P2;Temp;Humidity;BMP_temperature;BMP_pressure;BME280_temperature;BME280_humidity;BME280_pressure;Samples;Min_cycle;Max_cycle;Signal;HPM_P1;HPM_P2
2023/12/11 00:02:04;;;;;;;5.28;1.20;;;;;;;;;;5047764;28;20641;-81
2023/12/11 00:04:37;;;;;;;2.35;1.05;;;;;;;;;;5049263;28;20049;-82
2023/12/11 00:07:09;;;;;;;1.80;1.70;;;;;;;;;;5051024;28;20032;-82
2023/12/11 00:10:18;;;;;;;1.73;1.45;;;;;;;;;;5047290;28;20310;-80
2023/12/11 00:12:48;;;;;;;1.00;1.00;;;;;;;;;;5046486;28;20048;-81
2023/12/11 00:15:16;;;;;;;1.37;1.27;;;;;;;;;;5049103;28;20075;-82
2023/12/11 00:17:43;;;;;;;2.35;2.10;;;;;;;;;;5046707;28;20036;-80
2023/12/11 00:20:13;;;;;;;2.95;1.55;;;;;;;;;;5048868;28;20440;-80
2023/12/11 00:22:45;;;;;;;1.60;1.45;;;;;;;;;;5047306;28;20029;-80
2023/12/11 00:25:16;;;;;;;2.17;1.92;;;;;;;;;;5080737;28;20036;-81
2023/12/11 00:27:53;;;;;;;2.47;1.73;;;;;;;;;;5047763;28;20493;-81
2023/12/11 00:30:26;;;;;;;1.42;1.33;;;;;;;;;;5049367;28;20029;-80
2023/12/11 00:32:54;;;;;;;2.30;1.92;;;;;;;;;;5048249;28;20114;-82
2023/12/11 00:35:28;;;;;;;1.65;1.55;;;;;;;;;;5048335;28;20036;-81
2023/12/11 00:38:23;;;;;;;1.13;1.10;;;;;;;;;;5048566;28;20481;-81
2023/12/11 00:40:58;;;;;;;4.22;2.22;;;;;;;;;;5048819;28;20115;-80
2023/12/11 00:43:27;;;;;;;1.10;1.10;;;;;;;;;;5047192;28;20056;-81
2023/12/11 00:46:22;;;;;;;2.00;1.83;;;;;;;;;;5048199;28;20027;-80
2023/12/11 00:48:51;;;;;;;5.80;2.95;;;;;;;;;;5045601;28;20041;-80
2023/12/11 00:51:34;;;;;;;3.20;1.70;;;;;;;;;;5049387;28;20020;-80
2023/12/11 00:54:31;;;;;;;1.58;1.48;;;;;;;;;;5045587;28;20028;-80
2023/12/11 00:57:09;;;;;;;3.13;1.73;;;;;;;;;;5047079;28;20049;-81
2023/12/11 01:03:04;;;;;;;3.72;2.38;;;;;;;;;;5047105;28;20040;-83
2023/12/11 01:05:32;;;;;;;2.10;1.58;;;;;;;;;;5047324;28;20190;-82
2023/12/11 01:08:07;;;;;;;3.28;2.00;;;;;;;;;;5043981;28;20025;-80
2023/12/11 01:11:08;;;;;;;2.85;2.50;;;;;;;;;;5045626;28;20136;-81
2023/12/11 01:14:28;;;;;;;0.57;0.57;;;;;;;;;;5039831;28;20633;-81
2023/12/11 01:16:54;;;;;;;;;;;;;;;;;;5047581;28;20581;-80
2023/12/11 01:19:49;;;;;;;2.97;1.23;;;;;;;;;;5077983;28;20281;-80
2023/12/11 01:22:20;;;;;;;4.40;2.13;;;;;;;;;;5047760;28;20033;-81
2023/12/11 01:24:46;;;;;;;5.53;4.13;;;;;;;;;;5078291;28;20032;-81
2023/12/11 01:27:29;;;;;;;1.80;1.70;;;;;;;;;;5048690;28;20117;-80
2023/12/11 01:29:58;;;;;;;2.92;1.35;;;;;;;;;;5050958;28;20074;-81
2023/12/11 01:32:24;;;;;;;3.70;2.60;;;;;;;;;;5048682;28;20120;-80
2023/12/11 01:34:53;;;;;;;2.17;1.70;;;;;;;;;;5052290;28;20262;-81
2023/12/11 01:37:32;;;;;;;1.90;1.45;;;;;;;;;;5051907;28;20025;-81
2023/12/11 01:40:07;;;;;;;2.17;1.52;;;;;;;;;;5050136;28;20389;-81
2023/12/11 01:42:49;;;;;;;2.95;2.03;;;;;;;;;;5049198;28;20362;-80
2023/12/11 01:45:18;;;;;;;3.38;1.67;;;;;;;;;;5050248;28;20048;-81
2023/12/11 01:47:44;;;;;;;1.35;1.25;;;;;;;;;;5051157;28;20558;-79
2023/12/11 01:50:11;;;;;;;3.58;2.38;;;;;;;;;;5049758;28;20112;-79
2023/12/11 01:52:38;;;;;;;7.18;3.05;;;;;;;;;;5047873;28;20041;-81
2023/12/11 01:55:18;;;;;;;2.30;1.77;;;;;;;;;;5049610;28;20289;-81
2023/12/11 01:57:47;;;;;;;1.98;1.27;;;;;;;;;;5048418;28;20051;-81
2023/12/11 02:00:54;;;;;;;5.68;3.35;;;;;;;;;;5051908;28;20029;-81
2023/12/11 02:03:19;;;;;;;0.98;0.82;;;;;;;;;;5050669;28;20128;-81
2023/12/11 02:05:45;;;;;;;2.55;1.83;;;;;;;;;;5052081;28;20088;-81
2023/12/11 02:08:15;;;;;;;3.22;1.67;;;;;;;;;;5085357;28;20025;-80
2023/12/11 02:10:43;;;;;;;2.22;1.88;;;;;;;;;;5052014;28;20033;-80
2023/12/11 02:13:09;;;;;;;2.08;1.27;;;;;;;;;;5053689;28;20029;-81
2023/12/11 02:15:43;;;;;;;1.13;0.90;;;;;;;;;;5048208;28;20401;-81
2023/12/11 02:18:10;;;;;;;1.02;0.98;;;;;;;;;;5050808;28;20126;-81
2023/12/11 02:20:38;;;;;;;1.60;1.38;;;;;;;;;;5053737;28;20032;-81
2023/12/11 02:23:10;;;;;;;1.50;1.15;;;;;;;;;;5051949;28;20025;-79
2023/12/11 02:25:37;;;;;;;1.65;0.95;;;;;;;;;;5051446;28;20037;-79
2023/12/11 02:28:06;;;;;;;1.08;0.85;;;;;;;;;;5051644;28;20031;-82
2023/12/11 02:30:35;;;;;;;1.50;1.25;;;;;;;;;;5051115;28;20075;-80
2023/12/11 02:33:01;;;;;;;0.80;0.80;;;;;;;;;;5050211;28;20025;-81
2023/12/11 02:35:26;;;;;;;0.47;0.47;;;;;;;;;;5051339;28;20037;-80
2023/12/11 02:37:52;;;;;;;1.20;1.08;;;;;;;;;;5051275;28;20067;-80
2023/12/11 02:40:17;;;;;;;0.75;0.73;;;;;;;;;;5051355;28;20033;-79
2023/12/11 02:42:49;;;;;;;1.15;1.00;;;;;;;;;;5050845;28;20357;-79
2023/12/11 02:45:15;;;;;;;3.03;2.03;;;;;;;;;;5052148;28;20091;-78
2023/12/11 02:47:41;;;;;;;1.67;1.58;;;;;;;;;;5049029;28;20528;-80
2023/12/11 02:50:06;;;;;;;1.40;1.23;;;;;;;;;;5050194;28;20032;-81
2023/12/11 02:52:32;;;;;;;3.15;2.42;;;;;;;;;;5052784;28;20083;-81
2023/12/11 02:54:57;;;;;;;1.50;1.05;;;;;;;;;;5052190;28;20048;-80
2023/12/11 02:57:23;;;;;;;0.93;0.80;;;;;;;;;;5051273;28;20045;-80
2023/12/11 02:59:48;;;;;;;0.75;0.75;;;;;;;;;;5050280;28;20033;-80
2023/12/11 03:02:14;;;;;;;0.55;0.55;;;;;;;;;;5052852;28;20032;-81
2023/12/11 03:04:40;;;;;;;2.95;1.38;;;;;;;;;;5048929;28;20025;-80
2023/12/11 03:07:05;;;;;;;0.60;0.60;;;;;;;;;;5050567;28;20035;-80
2023/12/11 03:09:34;;;;;;;1.17;1.08;;;;;;;;;;5047803;28;20049;-80
2023/12/11 03:11:59;;;;;;;0.55;0.55;;;;;;;;;;5051107;28;20498;-80
2023/12/11 03:14:25;;;;;;;2.45;0.85;;;;;;;;;;5049023;28;20068;-82
2023/12/11 03:16:50;;;;;;;0.73;0.73;;;;;;;;;;5049356;28;20718;-84
2023/12/11 03:19:16;;;;;;;1.00;1.00;;;;;;;;;;5049843;28;20033;-83
2023/12/11 03:21:42;;;;;;;2.15;1.42;;;;;;;;;;5049832;28;20032;-81
2023/12/11 03:24:08;;;;;;;0.73;0.73;;;;;;;;;;5050488;28;20027;-83
2023/12/11 03:26:34;;;;;;;1.30;1.10;;;;;;;;;;5051596;28;20106;-83
2023/12/11 03:29:00;;;;;;;12.07;2.35;;;;;;;;;;5049750;28;20075;-81
2023/12/11 03:31:25;;;;;;;1.00;0.95;;;;;;;;;;5051782;28;20024;-79
2023/12/11 03:33:51;;;;;;;0.98;0.88;;;;;;;;;;5049178;28;20044;-80
2023/12/11 03:36:16;;;;;;;2.55;1.58;;;;;;;;;;5049437;28;20043;-80
2023/12/11 03:38:45;;;;;;;1.15;1.08;;;;;;;;;;5048349;28;20064;-80
2023/12/11 03:41:10;;;;;;;1.05;1.00;;;;;;;;;;5048926;28;20044;-80
2023/12/11 03:43:36;;;;;;;1.15;1.05;;;;;;;;;;5049490;28;20021;-80
2023/12/11 03:46:03;;;;;;;3.28;2.00;;;;;;;;;;5049941;28;20029;-81
2023/12/11 03:48:29;;;;;;;2.17;1.77;;;;;;;;;;5049524;28;20020;-81
2023/12/11 03:50:54;;;;;;;1.33;1.15;;;;;;;;;;5051111;28;20027;-80
2023/12/11 03:53:22;;;;;;;0.85;0.82;;;;;;;;;;5049305;28;20206;-81
2023/12/11 03:55:48;;;;;;;4.32;1.55;;;;;;;;;;5047635;28;20124;-81
2023/12/11 03:58:14;;;;;;;0.90;0.90;;;;;;;;;;5049844;28;20112;-82
2023/12/11 04:00:39;;;;;;;1.13;1.02;;;;;;;;;;5048073;28;20041;-80
2023/12/11 04:03:08;;;;;;;1.23;0.90;;;;;;;;;;5049517;28;20036;-80
2023/12/11 04:05:36;;;;;;;1.50;1.02;;;;;;;;;;5047407;28;20028;-82
2023/12/11 04:08:01;;;;;;;1.17;1.08;;;;;;;;;;5048926;28;20121;-81
2023/12/11 04:10:27;;;;;;;0.70;0.70;;;;;;;;;;5047464;28;20443;-82
2023/12/11 04:12:52;;;;;;;1.00;1.00;;;;;;;;;;5050212;28;20032;-81
2023/12/11 04:15:25;;;;;;;0.85;0.85;;;;;;;;;;5048388;28;20033;-81
2023/12/11 04:17:51;;;;;;;0.43;0.43;;;;;;;;;;5047011;28;20025;-81
2023/12/11 04:20:16;;;;;;;0.88;0.88;;;;;;;;;;5048021;28;20037;-81
2023/12/11 04:22:42;;;;;;;1.33;1.13;;;;;;;;;;5051764;28;20032;-81
2023/12/11 04:25:07;;;;;;;0.43;0.43;;;;;;;;;;5050657;28;20024;-81
2023/12/11 04:27:33;;;;;;;3.17;1.63;;;;;;;;;;5046931;28;20473;-81
2023/12/11 04:29:58;;;;;;;1.20;1.10;;;;;;;;;;5048391;28;20029;-80
2023/12/11 04:32:24;;;;;;;1.52;1.38;;;;;;;;;;5047425;28;20024;-80
2023/12/11 04:34:49;;;;;;;1.23;1.13;;;;;;;;;;5051190;28;20036;-81
2023/12/11 04:37:15;;;;;;;1.10;0.85;;;;;;;;;;5047618;28;20480;-79
2023/12/11 04:39:46;;;;;;;2.25;0.65;;;;;;;;;;5047967;28;20044;-81
2023/12/11 04:42:12;;;;;;;0.95;0.93;;;;;;;;;;5044661;28;20025;-79
2023/12/11 04:44:38;;;;;;;1.75;0.70;;;;;;;;;;5046614;28;20029;-79
2023/12/11 04:47:04;;;;;;;0.80;0.80;;;;;;;;;;5047906;28;20104;-80
2023/12/11 04:49:29;;;;;;;1.23;0.70;;;;;;;;;;5046540;28;20036;-78
2023/12/11 04:51:54;;;;;;;1.30;1.20;;;;;;;;;;5047876;28;20040;-78
2023/12/11 04:54:20;;;;;;;1.58;1.13;;;;;;;;;;5045028;28;20030;-79
2023/12/11 04:56:45;;;;;;;0.60;0.60;;;;;;;;;;5050052;28;20141;-80
2023/12/11 04:59:11;;;;;;;0.57;0.57;;;;;;;;;;5045581;28;20029;-79
2023/12/11 05:01:39;;;;;;;0.95;0.85;;;;;;;;;;5050149;28;20029;-80
2023/12/11 05:04:04;;;;;;;1.15;1.05;;;;;;;;;;5051867;28;20078;-81
2023/12/11 05:06:35;;;;;;;4.55;1.55;;;;;;;;;;5052663;28;20033;-79
2023/12/11 05:09:01;;;;;;;1.00;0.52;;;;;;;;;;5053050;28;20507;-79
2023/12/11 05:11:28;;;;;;;2.70;1.42;;;;;;;;;;5054556;28;20021;-80
2023/12/11 05:13:54;;;;;;;1.58;1.25;;;;;;;;;;5055801;28;20444;-79
2023/12/11 05:16:20;;;;;;;0.38;0.38;;;;;;;;;;5049992;28;20031;-77
2023/12/11 05:18:45;;;;;;;1.35;1.35;;;;;;;;;;5047689;28;20119;-78
2023/12/11 05:21:11;;;;;;;3.10;1.85;;;;;;;;;;5052530;28;20338;-81
2023/12/11 05:23:37;;;;;;;1.35;1.25;;;;;;;;;;5049243;28;20497;-79
2023/12/11 05:26:05;;;;;;;0.77;0.77;;;;;;;;;;5050762;28;20037;-79
2023/12/11 05:28:31;;;;;;;2.40;1.55;;;;;;;;;;5051301;28;20082;-79
2023/12/11 05:30:59;;;;;;;1.55;0.98;;;;;;;;;;5049609;28;20021;-79
2023/12/11 05:33:27;;;;;;;0.60;0.60;;;;;;;;;;5049995;28;20033;-79
2023/12/11 05:35:52;;;;;;;0.52;0.47;;;;;;;;;;5050712;28;20369;-79
2023/12/11 05:38:18;;;;;;;0.93;0.93;;;;;;;;;;5049979;28;20021;-77
2023/12/11 05:40:43;;;;;;;2.47;1.02;;;;;;;;;;5049230;28;20446;-78
2023/12/11 05:43:09;;;;;;;1.40;0.75;;;;;;;;;;5051860;28;20021;-77
2023/12/11 05:45:34;;;;;;;0.45;0.45;;;;;;;;;;5051552;28;20453;-79
2023/12/11 05:47:59;;;;;;;1.38;0.73;;;;;;;;;;5049994;28;20036;-77
2023/12/11 05:50:25;;;;;;;0.98;0.98;;;;;;;;;;5050007;28;20025;-77
2023/12/11 05:52:50;;;;;;;0.93;0.65;;;;;;;;;;5048603;28;20100;-78
2023/12/11 05:55:16;;;;;;;0.80;0.80;;;;;;;;;;5050880;28;20029;-78
2023/12/11 05:57:41;;;;;;;2.50;0.95;;;;;;;;;;5050535;28;20053;-77
2023/12/11 06:00:07;;;;;;;0.75;0.75;;;;;;;;;;5049875;28;20083;-78
2023/12/11 06:02:32;;;;;;;0.93;0.85;;;;;;;;;;5051457;28;20055;-78
2023/12/11 06:04:58;;;;;;;2.72;1.38;;;;;;;;;;5048675;28;20120;-77
2023/12/11 06:07:23;;;;;;;2.50;1.23;;;;;;;;;;5049823;28;20119;-77
2023/12/11 06:09:49;;;;;;;1.67;1.27;;;;;;;;;;5048754;28;20052;-78
2023/12/11 06:12:15;;;;;;;1.25;1.20;;;;;;;;;;5049453;28;20033;-77
2023/12/11 06:14:42;;;;;;;1.65;0.90;;;;;;;;;;5052220;28;20151;-77
2023/12/11 06:17:07;;;;;;;0.73;0.73;;;;;;;;;;5049714;28;20036;-77
2023/12/11 06:19:33;;;;;;;1.20;1.20;;;;;;;;;;5049710;28;20477;-77
2023/12/11 06:21:58;;;;;;;0.95;0.95;;;;;;;;;;5047939;28;20025;-77
2023/12/11 06:24:23;;;;;;;1.85;1.70;;;;;;;;;;5050773;28;20086;-78
2023/12/11 06:26:49;;;;;;;1.65;1.55;;;;;;;;;;5046967;28;20029;-78
2023/12/11 06:29:14;;;;;;;2.17;1.52;;;;;;;;;;5048593;28;20170;-80
2023/12/11 06:31:40;;;;;;;5.18;1.52;;;;;;;;;;5048698;28;20021;-78
2023/12/11 06:34:05;;;;;;;2.55;1.90;;;;;;;;;;5048937;28;20033;-79
2023/12/11 06:36:31;;;;;;;3.40;1.95;;;;;;;;;;5053264;28;20044;-82
2023/12/11 06:38:57;;;;;;;4.22;3.22;;;;;;;;;;5047430;28;20033;-76
2023/12/11 06:41:22;;;;;;;7.45;4.45;;;;;;;;;;5049733;28;20033;-78
2023/12/11 06:43:52;;;;;;;1.63;1.50;;;;;;;;;;5050320;28;20043;-78
2023/12/11 06:46:18;;;;;;;0.95;0.95;;;;;;;;;;5047808;28;20032;-77
2023/12/11 06:48:44;;;;;;;1.38;1.27;;;;;;;;;;5046092;28;20028;-77
2023/12/11 06:51:09;;;;;;;1.08;0.85;;;;;;;;;;5044992;28;20025;-77
2023/12/11 06:53:35;;;;;;;0.85;0.60;;;;;;;;;;5046316;28;20031;-77
2023/12/11 06:56:00;;;;;;;0.90;0.85;;;;;;;;;;5045269;28;20056;-78
2023/12/11 06:58:26;;;;;;;1.42;1.33;;;;;;;;;;5046912;28;20461;-77
2023/12/11 07:00:51;;;;;;;0.90;0.90;;;;;;;;;;5049163;28;20033;-78
2023/12/11 07:03:17;;;;;;;4.43;2.63;;;;;;;;;;5043157;28;20078;-77
2023/12/11 07:05:44;;;;;;;5.05;2.80;;;;;;;;;;5049100;28;20036;-77
2023/12/11 07:08:10;;;;;;;4.47;3.70;;;;;;;;;;5048912;28;20028;-77
2023/12/11 07:10:35;;;;;;;4.32;2.65;;;;;;;;;;5048902;28;20397;-77
2023/12/11 07:13:02;;;;;;;4.30;2.38;;;;;;;;;;5048719;28;20021;-77
2023/12/11 07:15:28;;;;;;;2.40;2.13;;;;;;;;;;5047240;28;20032;-77
2023/12/11 07:17:54;;;;;;;1.88;1.77;;;;;;;;;;5045545;28;20029;-77
2023/12/11 07:20:20;;;;;;;1.85;1.75;;;;;;;;;;5046586;28;20071;-77
2023/12/11 07:22:46;;;;;;;57.22;26.38;;;;;;;;;;5045142;28;20028;-77
2023/12/11 07:25:12;;;;;;;4.15;3.28;;;;;;;;;;5047960;28;20036;-77
2023/12/11 07:27:38;;;;;;;4.88;3.33;;;;;;;;;;5049816;28;20025;-77
2023/12/11 07:30:04;;;;;;;3.05;2.15;;;;;;;;;;5046528;28;20110;-77
2023/12/11 07:32:30;;;;;;;3.10;1.98;;;;;;;;;;5046320;28;20024;-79
2023/12/11 07:34:55;;;;;;;5.05;2.20;;;;;;;;;;5047913;28;20033;-78
2023/12/11 07:37:21;;;;;;;2.65;2.45;;;;;;;;;;5049078;28;20064;-76
2023/12/11 07:39:46;;;;;;;6.45;3.88;;;;;;;;;;5044789;28;20029;-77
2023/12/11 07:42:13;;;;;;;7.10;3.58;;;;;;;;;;5048721;28;20029;-78
2023/12/11 07:44:38;;;;;;;5.82;3.88;;;;;;;;;;5049085;28;20082;-77
2023/12/11 07:47:04;;;;;;;6.43;3.45;;;;;;;;;;5049108;28;20040;-77
2023/12/11 07:49:29;;;;;;;5.32;3.10;;;;;;;;;;5049307;28;20029;-78
2023/12/11 07:51:58;;;;;;;6.30;3.67;;;;;;;;;;5048961;28;20025;-77
2023/12/11 07:54:23;;;;;;;7.15;4.53;;;;;;;;;;5049411;28;20032;-77
2023/12/11 07:56:49;;;;;;;6.25;3.00;;;;;;;;;;5043914;28;20040;-77
2023/12/11 07:59:15;;;;;;;3.65;2.10;;;;;;;;;;5048515;28;20473;-78
2023/12/11 08:01:40;;;;;;;3.10;1.95;;;;;;;;;;5048971;28;20078;-78
2023/12/11 08:04:05;;;;;;;6.30;3.60;;;;;;;;;;5045987;28;20099;-78
2023/12/11 08:06:31;;;;;;;5.80;2.83;;;;;;;;;;5046758;28;20496;-78
2023/12/11 08:08:57;;;;;;;13.63;3.95;;;;;;;;;;5048863;28;20518;-78
2023/12/11 08:11:29;;;;;;;7.15;3.10;;;;;;;;;;5048488;28;20025;-78
2023/12/11 08:13:55;;;;;;;1.98;1.83;;;;;;;;;;5045717;28;20484;-78
2023/12/11 08:16:23;;;;;;;3.35;1.92;;;;;;;;;;5049196;28;20029;-77
2023/12/11 08:18:48;;;;;;;2.47;2.20;;;;;;;;;;5045751;28;20055;-77
2023/12/11 08:21:16;;;;;;;1.88;1.25;;;;;;;;;;5048257;28;20033;-78
2023/12/11 08:23:46;;;;;;;1.67;1.55;;;;;;;;;;5048386;28;20246;-78
2023/12/11 08:26:17;;;;;;;4.47;1.63;;;;;;;;;;5048153;28;20044;-77
2023/12/11 08:28:42;;;;;;;7.88;2.58;;;;;;;;;;5047962;28;20035;-77
2023/12/11 08:31:08;;;;;;;2.88;2.35;;;;;;;;;;5047329;28;20426;-78
2023/12/11 08:33:33;;;;;;;4.57;2.08;;;;;;;;;;5047796;28;20025;-77
2023/12/11 08:35:58;;;;;;;4.93;3.33;;;;;;;;;;5045212;28;20043;-79
2023/12/11 08:38:24;;;;;;;1.92;1.83;;;;;;;;;;5048668;28;20024;-78
2023/12/11 08:40:50;;;;;;;2.22;2.03;;;;;;;;;;5046180;28;20381;-78
2023/12/11 08:43:16;;;;;;;6.22;2.70;;;;;;;;;;5048858;28;20025;-77
2023/12/11 08:45:42;;;;;;;1.35;1.15;;;;;;;;;;5045481;28;20055;-77
2023/12/11 08:48:08;;;;;;;3.80;2.13;;;;;;;;;;5045180;28;20029;-77
2023/12/11 08:50:33;;;;;;;2.10;1.55;;;;;;;;;;5046962;28;20059;-77
2023/12/11 08:53:00;;;;;;;1.48;1.38;;;;;;;;;;5045462;28;20033;-76
2023/12/11 08:55:27;;;;;;;1.95;1.50;;;;;;;;;;5047634;28;20391;-76
2023/12/11 08:57:53;;;;;;;2.75;2.38;;;;;;;;;;5046399;28;20381;-77
2023/12/11 09:00:18;;;;;;;1.35;0.88;;;;;;;;;;5048255;28;20040;-76
2023/12/11 09:02:44;;;;;;;1.48;1.27;;;;;;;;;;5045973;28;20025;-77
2023/12/11 09:05:09;;;;;;;2.58;2.38;;;;;;;;;;5046490;28;20021;-76
2023/12/11 09:07:37;;;;;;;3.33;1.80;;;;;;;;;;5048572;28;20094;-77
2023/12/11 09:10:04;;;;;;;2.70;2.00;;;;;;;;;;5048042;28;20028;-76
2023/12/11 09:12:30;;;;;;;2.72;1.48;;;;;;;;;;5048374;28;20032;-76
2023/12/11 09:14:55;;;;;;;2.05;1.67;;;;;;;;;;5047755;28;20412;-77
2023/12/11 09:17:21;;;;;;;2.08;1.48;;;;;;;;;;5048271;28;20029;-77
2023/12/11 09:19:46;;;;;;;1.45;0.98;;;;;;;;;;5047995;28;20534;-77
2023/12/11 09:22:13;;;;;;;2.50;1.98;;;;;;;;;;5045922;28;20025;-78
2023/12/11 09:24:39;;;;;;;1.30;1.17;;;;;;;;;;5046717;28;20396;-77
2023/12/11 09:27:04;;;;;;;2.75;1.35;;;;;;;;;;5048194;28;20037;-77
2023/12/11 09:29:30;;;;;;;5.47;1.92;;;;;;;;;;5045968;28;20037;-78
2023/12/11 09:31:55;;;;;;;1.48;1.02;;;;;;;;;;5050725;28;20024;-77
2023/12/11 09:34:21;;;;;;;2.65;1.40;;;;;;;;;;5047705;28;20488;-78
2023/12/11 09:36:46;;;;;;;5.10;1.45;;;;;;;;;;5050084;28;20043;-77
2023/12/11 09:39:12;;;;;;;2.22;1.60;;;;;;;;;;5047379;28;20489;-78
2023/12/11 09:41:38;;;;;;;1.50;1.23;;;;;;;;;;5048211;28;20492;-79
2023/12/11 09:44:05;;;;;;;2.17;1.35;;;;;;;;;;5046738;28;20029;-78
2023/12/11 09:46:57;;;;;;;2.60;2.10;;;;;;;;;;5046935;28;20107;-77
2023/12/11 09:49:22;;;;;;;3.78;1.98;;;;;;;;;;5066721;28;20028;-78
2023/12/11 09:51:48;;;;;;;1.33;1.17;;;;;;;;;;5051799;28;20358;-76
2023/12/11 09:54:13;;;;;;;0.88;0.88;;;;;;;;;;5050761;28;20048;-77
2023/12/11 09:56:39;;;;;;;2.22;1.15;;;;;;;;;;5048298;28;20041;-77
2023/12/11 09:59:05;;;;;;;1.20;1.13;;;;;;;;;;5051501;28;20020;-76
2023/12/11 10:01:31;;;;;;;2.03;1.45;;;;;;;;;;5049992;28;20029;-77
2023/12/11 10:03:57;;;;;;;1.63;1.33;;;;;;;;;;5051558;28;20032;-78
2023/12/11 10:06:23;;;;;;;1.15;1.15;;;;;;;;;;5051437;28;20051;-78
2023/12/11 10:08:52;;;;;;;2.00;1.20;;;;;;;;;;5050066;28;20048;-78
2023/12/11 10:11:19;;;;;;;0.90;0.85;;;;;;;;;;5051400;28;20073;-77
2023/12/11 10:13:45;;;;;;;3.60;1.48;;;;;;;;;;5050420;28;20059;-77
2023/12/11 10:16:29;;;;;;;1.60;1.13;;;;;;;;;;5049831;28;20730;-77
2023/12/11 10:18:56;;;;;;;1.25;0.85;;;;;;;;;;5051445;28;20029;-78
2023/12/11 10:21:25;;;;;;;1.20;1.10;;;;;;;;;;5049659;28;20029;-78
2023/12/11 10:24:04;;;;;;;2.40;2.20;;;;;;;;;;5048846;28;20036;-78
2023/12/11 10:26:37;;;;;;;1.05;0.93;;;;;;;;;;5051005;28;20033;-78
2023/12/11 10:29:25;;;;;;;0.75;0.75;;;;;;;;;;5050835;28;20109;-77
2023/12/11 10:31:53;;;;;;;2.80;0.95;;;;;;;;;;5051018;28;20121;-78
2023/12/11 10:34:38;;;;;;;1.15;1.05;;;;;;;;;;5045880;28;20040;-77
2023/12/11 10:37:03;;;;;;;0.95;0.90;;;;;;;;;;5048235;28;20488;-77
2023/12/11 10:39:29;;;;;;;1.88;1.58;;;;;;;;;;5048034;28;20078;-77
2023/12/11 10:41:54;;;;;;;1.92;1.38;;;;;;;;;;5048045;28;20028;-78
2023/12/11 10:44:24;;;;;;;4.75;2.28;;;;;;;;;;5049618;28;20139;-77
2023/12/11 10:46:57;;;;;;;1.42;1.33;;;;;;;;;;5049442;28;20028;-76
2023/12/11 10:49:23;;;;;;;2.25;1.60;;;;;;;;;;5048401;28;20614;-76
2023/12/11 10:51:50;;;;;;;1.90;1.50;;;;;;;;;;5047862;28;20021;-77
2023/12/11 10:54:16;;;;;;;1.00;0.93;;;;;;;;;;5047999;28;20111;-77
2023/12/11 10:56:45;;;;;;;2.00;1.50;;;;;;;;;;5048163;28;20141;-77
2023/12/11 10:59:13;;;;;;;1.45;0.90;;;;;;;;;;5048544;28;20091;-79
2023/12/11 11:01:42;;;;;;;2.33;1.63;;;;;;;;;;5049026;28;20052;-79
2023/12/11 11:04:09;;;;;;;2.00;1.58;;;;;;;;;;5048599;28;20054;-79
2023/12/11 11:07:13;;;;;;;1.45;0.95;;;;;;;;;;5049279;28;20032;-78
2023/12/11 11:10:03;;;;;;;0.52;0.52;;;;;;;;;;5049109;28;20497;-77
2023/12/11 11:12:55;;;;;;;;;;;;;;;;;;5048783;28;20086;-78
2023/12/11 11:15:22;;;;;;;0.73;0.73;;;;;;;;;;5048338;28;19916;-77
2023/12/11 11:18:05;;;;;;;0.82;0.75;;;;;;;;;;5049971;28;20021;-79
2023/12/11 11:20:35;;;;;;;2.70;1.63;;;;;;;;;;5048839;28;20067;-80
2023/12/11 11:23:18;;;;;;;2.47;1.60;;;;;;;;;;5050070;28;20036;-79
2023/12/11 11:25:53;;;;;;;4.78;2.03;;;;;;;;;;5051683;28;20377;-78
2023/12/11 11:28:38;;;;;;;1.58;1.33;;;;;;;;;;5050051;28;20025;-80
2023/12/11 11:31:08;;;;;;;3.03;1.52;;;;;;;;;;5049480;28;20048;-78
2023/12/11 11:33:50;;;;;;;3.00;1.48;;;;;;;;;;5050089;28;20037;-77
2023/12/11 11:36:21;;;;;;;2.53;1.20;;;;;;;;;;5048507;28;20128;-78
2023/12/11 11:38:57;;;;;;;1.00;0.90;;;;;;;;;;5049690;28;20071;-76
2023/12/11 11:41:28;;;;;;;2.30;1.90;;;;;;;;;;5049596;28;20021;-79
2023/12/11 11:44:00;;;;;;;4.43;1.90;;;;;;;;;;5047454;28;20025;-80
2023/12/11 11:46:46;;;;;;;2.15;1.63;;;;;;;;;;5048363;28;20033;-77
2023/12/11 11:49:27;;;;;;;3.05;1.80;;;;;;;;;;5049466;28;20098;-80
2023/12/11 11:51:52;;;;;;;2.03;1.50;;;;;;;;;;5048073;28;20438;-78
2023/12/11 11:54:21;;;;;;;1.13;1.02;;;;;;;;;;5048063;28;20063;-78
2023/12/11 11:56:47;;;;;;;1.48;1.38;;;;;;;;;;5047505;28;20526;-78
2023/12/11 11:59:12;;;;;;;1.63;1.48;;;;;;;;;;5049450;28;20104;-77
2023/12/11 12:01:54;;;;;;;1.27;1.13;;;;;;;;;;5047782;28;20029;-77
2023/12/11 12:04:29;;;;;;;1.38;1.27;;;;;;;;;;5049033;28;20094;-78
2023/12/11 12:07:03;;;;;;;0.77;0.73;;;;;;;;;;5048624;28;20016;-78
2023/12/11 12:09:33;;;;;;;1.20;0.93;;;;;;;;;;5048956;28;20020;-77
2023/12/11 12:12:00;;;;;;;0.98;0.75;;;;;;;;;;5048959;28;20108;-78
2023/12/11 12:14:26;;;;;;;4.28;1.30;;;;;;;;;;5048963;28;20030;-81
2023/12/11 12:16:52;;;;;;;1.55;1.25;;;;;;;;;;5049234;28;20033;-78
2023/12/11 12:19:31;;;;;;;1.38;0.75;;;;;;;;;;5047988;28;20048;-75
2023/12/11 12:21:58;;;;;;;3.22;1.77;;;;;;;;;;5047766;28;20151;-78
2023/12/11 12:24:24;;;;;;;0.50;0.47;;;;;;;;;;5046953;28;20083;-79
2023/12/11 12:26:53;;;;;;;2.95;1.58;;;;;;;;;;5049053;28;20064;-79
2023/12/11 12:29:20;;;;;;;1.20;1.10;;;;;;;;;;5047389;28;20035;-79
2023/12/11 12:31:46;;;;;;;1.33;1.10;;;;;;;;;;5048864;28;20036;-80
2023/12/11 12:34:13;;;;;;;1.33;1.05;;;;;;;;;;5048724;28;20035;-79
2023/12/11 12:36:40;;;;;;;2.05;1.13;;;;;;;;;;5079661;28;20032;-78
2023/12/11 12:39:06;;;;;;;1.95;1.52;;;;;;;;;;5049110;28;20033;-77
2023/12/11 12:41:31;;;;;;;0.70;0.70;;;;;;;;;;5046324;28;20025;-77
2023/12/11 12:43:58;;;;;;;0.85;0.70;;;;;;;;;;5048886;28;20032;-79
2023/12/11 12:46:36;;;;;;;2.00;1.02;;;;;;;;;;5048205;28;20497;-77
2023/12/11 12:49:16;;;;;;;1.73;1.27;;;;;;;;;;5048242;28;20045;-79
2023/12/11 12:51:47;;;;;;;1.55;1.45;;;;;;;;;;5048391;28;20020;-80
2023/12/11 12:54:13;;;;;;;1.02;0.90;;;;;;;;;;5048084;28;20504;-78
2023/12/11 12:56:39;;;;;;;2.97;1.95;;;;;;;;;;5045926;28;20071;-77
2023/12/11 12:59:05;;;;;;;1.80;1.50;;;;;;;;;;5048422;28;20103;-77
2023/12/11 13:01:40;;;;;;;3.85;1.27;;;;;;;;;;5046966;28;20112;-77
2023/12/11 13:04:10;;;;;;;1.50;1.40;;;;;;;;;;5048339;28;20039;-77
2023/12/11 13:06:36;;;;;;;1.05;0.95;;;;;;;;;;5047114;28;20037;-79
2023/12/11 13:09:03;;;;;;;0.90;0.80;;;;;;;;;;5048042;28;20028;-79
2023/12/11 13:11:45;;;;;;;2.97;1.20;;;;;;;;;;5043504;28;20025;-79
2023/12/11 13:14:11;;;;;;;1.98;1.48;;;;;;;;;;5047735;28;20025;-78
2023/12/11 13:16:39;;;;;;;0.98;0.73;;;;;;;;;;5048503;28;20033;-77
2023/12/11 13:19:05;;;;;;;1.67;1.58;;;;;;;;;;5047779;28;20032;-78
2023/12/11 13:21:30;;;;;;;2.53;1.98;;;;;;;;;;5047848;28;20029;-79
2023/12/11 13:23:56;;;;;;;4.05;1.88;;;;;;;;;;5050378;28;20033;-79
2023/12/11 13:26:22;;;;;;;7.38;2.42;;;;;;;;;;5049342;28;20060;-78
2023/12/11 13:28:48;;;;;;;4.40;1.90;;;;;;;;;;5050045;28;20028;-78
2023/12/11 13:31:13;;;;;;;1.10;1.00;;;;;;;;;;5051096;28;20497;-80
2023/12/11 13:33:39;;;;;;;1.20;1.10;;;;;;;;;;5051309;28;20053;-77
2023/12/11 13:36:05;;;;;;;2.72;2.35;;;;;;;;;;5051490;28;20435;-80
2023/12/11 13:38:31;;;;;;;3.97;3.28;;;;;;;;;;5041517;28;20128;-78
2023/12/11 13:40:59;;;;;;;1.23;1.15;;;;;;;;;;5048794;28;20178;-79
2023/12/11 13:43:24;;;;;;;1.77;1.10;;;;;;;;;;5048433;28;20033;-79
2023/12/11 13:45:50;;;;;;;7.78;3.55;;;;;;;;;;5049541;28;20059;-77
2023/12/11 13:48:17;;;;;;;1.90;1.50;;;;;;;;;;5048503;28;20029;-79
2023/12/11 13:50:42;;;;;;;2.95;2.15;;;;;;;;;;5048774;28;20035;-81
2023/12/11 13:53:08;;;;;;;1.60;1.50;;;;;;;;;;5049635;28;20067;-78
2023/12/11 13:55:33;;;;;;;6.60;2.92;;;;;;;;;;5050453;28;20044;-77
2023/12/11 13:57:59;;;;;;;6.47;3.08;;;;;;;;;;5050178;28;20021;-78
2023/12/11 14:00:25;;;;;;;1.38;1.27;;;;;;;;;;5049668;28;20071;-77
2023/12/11 14:02:50;;;;;;;3.33;1.80;;;;;;;;;;5053100;28;20060;-78
2023/12/11 14:05:16;;;;;;;4.15;1.83;;;;;;;;;;5052138;28;20104;-77
2023/12/11 14:07:41;;;;;;;0.60;0.60;;;;;;;;;;5051133;28;20473;-78
2023/12/11 14:10:08;;;;;;;3.28;1.20;;;;;;;;;;5049411;28;20032;-77
2023/12/11 14:12:36;;;;;;;1.75;1.65;;;;;;;;;;5049339;28;20032;-77
2023/12/11 14:15:02;;;;;;;0.95;0.80;;;;;;;;;;5049679;28;20046;-78
2023/12/11 14:17:27;;;;;;;0.95;0.95;;;;;;;;;;5050334;28;20028;-78
2023/12/11 14:19:54;;;;;;;2.13;1.58;;;;;;;;;;5048907;28;20040;-76
2023/12/11 14:22:19;;;;;;;2.88;2.22;;;;;;;;;;5051101;28;20052;-79
2023/12/11 14:24:45;;;;;;;1.05;0.90;;;;;;;;;;5050671;28;20079;-77
2023/12/11 14:27:12;;;;;;;1.30;1.20;;;;;;;;;;5053435;28;20377;-77
2023/12/11 14:29:40;;;;;;;3.28;1.48;;;;;;;;;;5049874;28;20469;-77
2023/12/11 14:32:06;;;;;;;2.08;1.88;;;;;;;;;;5049145;28;20024;-77
2023/12/11 14:34:31;;;;;;;0.95;0.95;;;;;;;;;;5050199;28;20040;-77
2023/12/11 14:36:57;;;;;;;1.60;0.73;;;;;;;;;;5048973;28;20029;-78
2023/12/11 14:39:23;;;;;;;0.90;0.90;;;;;;;;;;5050536;28;20578;-77
2023/12/11 14:41:49;;;;;;;1.05;0.70;;;;;;;;;;5047942;28;20040;-77
2023/12/11 14:44:14;;;;;;;3.92;2.90;;;;;;;;;;5050414;28;20469;-78
2023/12/11 14:46:39;;;;;;;5.30;2.15;;;;;;;;;;5050345;28;20029;-78
2023/12/11 14:49:05;;;;;;;0.80;0.80;;;;;;;;;;5048028;28;20021;-77
2023/12/11 14:51:31;;;;;;;1.27;1.17;;;;;;;;;;5049211;28;20037;-77
2023/12/11 14:53:58;;;;;;;2.45;1.20;;;;;;;;;;5048826;28;20024;-78
2023/12/11 14:56:24;;;;;;;5.45;1.60;;;;;;;;;;5047377;28;20042;-79